Flight Track Log - Related Links

Times and Time Zones

All times are in EST time to prevent confusion due to time zone crossing. See the FLG3429 flight status page for this flight to view local times or setup timezone preferences in your user account.

Time Position Orientation Groundspeed Altitude Reporting Facility
EST Latitude Longitude Course Direction KTS MPH feet Rate Location/Type
Sat 11:43:02 AM 41.9325 -91.6917 69° East 223 257 4,200  Level Chicago Center
Sat 11:44:04 AM 41.9719 -91.6119 56° Northeast 238 274 7,200 2,732 Climbing Chicago Center
Sat 11:45:05 AM 42.0133 -91.5264 57° Northeast 266 306 9,800 1,951 Climbing Chicago Center
Sat 11:46:07 AM 42.0639 -91.4214 57° Northeast 327 376 11,200 1,790 Climbing Chicago Center
Sat 11:47:09 AM 42.1308 -91.2842 57° Northeast 364 419 13,500 2,000 Climbing Chicago Center
Sat 11:48:00 AM 41.9503 -90.7976 69° East  Level Estimated
Sat 11:48:10 AM 42.1881 -91.1631 57° Northeast 382 440 15,300  Level Chicago Center
Sat 11:49:12 AM 42.2481 -91.0369 57° Northeast 396 456 17,300 1,500 Climbing Chicago Center
Sat 11:50:14 AM 42.3067 -90.9108 58° Northeast 399 459 18,400 1,463 Climbing Chicago Center
Sat 11:51:15 AM 42.3472 -90.7656 69° East 443 510 20,300 1,122 Climbing Chicago Center
Sat 11:52:17 AM 42.3572 -90.6039 85° East 440 506 20,700 532 Climbing Chicago Center
Sat 11:53:19 AM 42.3692 -90.3903 86° East 470 541 21,400 823 Climbing Chicago Center
Sat 11:54:21 AM 42.3764 -90.2078 87° East 483 556 22,400 976 Climbing Chicago Center
Sat 11:55:22 AM 42.3861 -90.0225 86° East 494 568 23,400 1,024 Climbing Chicago Center
Sat 11:56:24 AM 42.3994 -89.8175 85° East 499 574 24,500 919 Climbing Chicago Center
Sat 11:57:26 AM 42.4153 -89.6306 83° East 503 579 25,300 629 Climbing Chicago Center
Sat 11:58:28 AM 42.4442 -89.4408 78° East 526 605 25,800 484 Climbing Chicago Center
Sat 11:59:30 AM 42.5369 -89.2956 49° Northeast 513 590 26,300 484 Climbing Chicago Center
Sat 12:00:32 PM 42.6269 -89.1400 52° Northeast 523 602 26,800 339 Climbing Chicago Center
Sat 12:01:34 PM 42.7192 -88.9828 51° Northeast 531 611 27,000 97 Climbing Chicago Center
Sat 12:02:36 PM 42.8308 -88.7872 52° Northeast 546 628 27,000  Level Chicago Center
Sat 12:03:37 PM 42.8803 -88.5847 72° East 566 651 27,000  Level Chicago Center
Sat 12:04:39 PM 42.9222 -88.3797 74° East 568 654 27,000  Level Chicago Center
Sat 12:05:41 PM 42.9639 -88.1772 74° East 564 649 27,000  Level Chicago Center
Sat 12:06:43 PM 42.9914 -87.9700 80° East 563 648 27,000  Level Chicago Center
Sat 12:07:45 PM 43.0186 -87.7178 82° East 564 649 27,000  Level Chicago Center
Sat 12:08:47 PM 43.0403 -87.5083 82° East 562 647 27,000  Level Chicago Center
Sat 12:09:48 PM 43.0625 -87.2839 82° East 560 644 27,000  Level Chicago Center
Sat 12:10:50 PM 43.0842 -87.0719 82° East 562 647 27,000  Level Chicago Center
Sat 12:11:52 PM 43.1044 -86.8611 82° East 561 646 27,000  Level Chicago Center
Sat 12:12:54 PM 43.1239 -86.6508 83° East 559 643 27,000  Level Chicago Center
Sat 12:13:56 PM 43.1442 -86.4392 82° East 561 646 27,000 -290 Level Chicago Center
Sat 12:14:58 PM 43.1633 -86.2247 83° East 562 647 26,400 -774 Descending Chicago Center
Sat 12:16:00 PM 43.1828 -86.0108 83° East 558 642 25,400 -1,016 Descending Chicago Center
Sat 12:17:02 PM 43.2008 -85.8031 83° East 542 624 24,300 -1,016 Descending Chicago Center
Sat 12:18:04 PM 43.2172 -85.6064 83° East 523 602 23,300 -629 Descending Chicago Center
Sat 12:19:06 PM 43.2364 -85.3783 83° East 506 582 23,000 -145 Descending Chicago Center
Sat 12:20:08 PM 43.2414 -85.1883 88° East 500 575 23,000  Level Chicago Center
Sat 12:21:10 PM 43.2081 -85.0033 104° East 498 573 23,000  Level Chicago Center
Sat 12:22:11 PM 43.1731 -84.8203 105° East 497 572 23,000  Level Chicago Center
Sat 12:23:13 PM 43.1194 -84.6483 113° Southeast 490 564 23,000  Level Chicago Center
Sat 12:24:15 PM 43.0661 -84.4753 113° Southeast 491 565 23,000 -1,102 Level Chicago Center
Sat 12:24:51 PM 43.0336 -84.3728 113° Southeast 490 564 21,200 -3,231 Descending Cleveland Center
Sat 12:25:46 PM 42.9792 -84.2000 113° Southeast 468 539 18,100 -3,290 Descending Cleveland Center
Sat 12:25:53 PM 42.9753 -84.1792 104° East 476 548 17,800 -2,327 Descending Cleveland Center
Sat 12:26:35 PM 42.9397 -84.0711 114° Southeast 437 503 16,200 -2,361 Descending Cleveland Center
Sat 12:26:54 PM 42.9281 -84.0267 110° East 449 517 15,400 -2,262 Descending Cleveland Center
Sat 12:27:36 PM 42.8931 -83.9242 115° Southeast 406 467 13,900 -2,129 Descending Cleveland Center
Sat 12:27:56 PM 42.8831 -83.8825 108° East 424 488 13,200 -1,839 Descending Cleveland Center
Sat 12:28:38 PM 42.8517 -83.7867 114° Southeast 371 427 12,000 -1,161 Descending Cleveland Center
Sat 12:28:58 PM 42.8442 -83.7558 108° East 378 435 12,000 -492 Level Cleveland Center
Sat 12:29:39 PM 42.7908 -83.7094 147° Southeast 294 338 11,500 -774 Descending Cleveland Center
Sat 12:30:00 PM 42.7736 -83.6961 150° Southeast 304 350 11,200 -1,082 Descending Cleveland Center
Sat 12:30:40 PM 42.7128 -83.6639 159° South 293 337 10,400 -984 Descending Cleveland Center
Sat 12:31:01 PM 42.6992 -83.6531 150° Southeast 295 339 10,200 -885 Descending Cleveland Center
Sat 12:31:41 PM 42.6489 -83.5975 141° Southeast 295 339 9,500 -968 Descending Cleveland Center
Sat 12:32:03 PM 42.6361 -83.5808 136° Southeast 301 346 9,200 -1,065 Descending Cleveland Center
Sat 12:32:43 PM 42.5878 -83.5233 139° Southeast 290 334 8,400 -1,065 Descending Cleveland Center
Sat 12:33:05 PM 42.5769 -83.5081 134° Southeast 291 335 8,100 -1,574 Descending Cleveland Center
Sat 12:33:44 PM 42.5267 -83.4467 138° Southeast 284 327 6,800 -1,742 Descending Cleveland Center
Sat 12:34:07 PM 42.5064 -83.4219 138° Southeast 285 328 6,300 -885 Descending Cleveland Center
Sat 12:34:45 PM 42.4694 -83.3761 138° Southeast 276 318 5,900 -1,180 Descending Cleveland Center
Sat 12:35:08 PM 42.4500 -83.3528 138° Southeast 276 318 5,100 -1,770 Descending Cleveland Center
Sat 12:35:46 PM 42.4139 -83.3089 138° Southeast 265 305 4,100 -1,065 Descending Cleveland Center
Sat 12:36:10 PM 42.3944 -83.2958 154° Southeast 262 302 4,000 -885 Descending Cleveland Center
Sat 12:36:47 PM 42.3522 -83.2944 179° South 216 249 3,200 -1,065 Descending Cleveland Center
Sat 12:37:12 PM 42.3339 -83.2939 179° South 230 265 2,900 -627 Descending Cleveland Center
Sat 12:37:54 PM 42.2939 -83.3147 201° Southwest 174 200 2,500 -581 Descending Cleveland Center
Sat 12:38:14 PM 42.2878 -83.3203 214° Southwest 194 223 2,300 -871 Descending Cleveland Center
Sat 12:38:56 PM 42.2583 -83.3406 207° Southwest 137 158 1,600 -774 Descending Cleveland Center
Sat 12:39:16 PM 42.2531 -83.3467 221° Southwest 161 185 1,500 -585 Descending Cleveland Center
Sat 12:40:18 PM 42.2169 -83.3744 210° Southwest 147 169 800 -677 Descending Cleveland Center
Sat 12:42:00 PM 42.2124 -83.3534 166° South  Level Estimated
Sat 12:49:00 PM 42.2124 -83.3534 166° South  Level Estimated

Login

Don't have an account? Register now (free) for customized features, flight alerts, and more!